createdAt,value
2019-05-10T00:02:58.720Z,8.40
2019-05-10T00:08:21.185Z,8.20
2019-05-10T00:13:27.708Z,8.20
2019-05-10T00:18:34.997Z,8.20
2019-05-10T00:23:39.723Z,8.20
2019-05-10T00:28:44.762Z,8.10
2019-05-10T00:33:50.025Z,8.10
2019-05-10T00:38:54.520Z,8.20
2019-05-10T00:43:59.364Z,8.20
2019-05-10T00:49:04.029Z,8.20
2019-05-10T00:54:08.512Z,8.30
2019-05-10T00:59:13.223Z,8.30
2019-05-10T01:04:18.066Z,8.30
2019-05-10T01:09:23.987Z,8.40
2019-05-10T01:14:28.610Z,8.40
2019-05-10T01:19:34.002Z,8.40
2019-05-10T01:24:38.631Z,8.50
2019-05-10T01:29:43.364Z,8.40
2019-05-10T01:34:49.624Z,8.20
2019-05-10T01:39:54.011Z,8.10
2019-05-10T01:44:59.456Z,8.20
2019-05-10T01:50:04.927Z,8.40
2019-05-10T01:55:09.918Z,8.50
2019-05-10T02:00:14.823Z,8.50
2019-05-10T02:05:19.276Z,8.50
2019-05-10T02:10:24.078Z,8.50
2019-05-10T02:15:29.035Z,8.40
2019-05-10T02:20:33.769Z,8.30
2019-05-10T02:25:39.756Z,8.30
2019-05-10T02:30:44.364Z,8.20
2019-05-10T02:35:49.152Z,8.20
2019-05-10T02:40:54.102Z,8.10
2019-05-10T02:45:58.878Z,8.00
2019-05-10T02:51:03.809Z,8.10
2019-05-10T02:56:27.831Z,8.10
2019-05-10T03:01:16.128Z,8.10
2019-05-10T03:06:22.401Z,8.10
2019-05-10T03:11:29.850Z,8.00
2019-05-10T03:16:37.693Z,8.00
2019-05-10T03:21:44.406Z,8.00
2019-05-10T03:26:51.320Z,7.90
2019-05-10T03:31:55.640Z,7.90
2019-05-10T03:37:01.649Z,7.90
2019-05-10T03:42:06.448Z,8.00
2019-05-10T03:47:11.100Z,8.00
2019-05-10T03:52:15.823Z,7.90
2019-05-10T03:57:20.258Z,7.90
2019-05-10T04:02:24.709Z,7.90
2019-05-10T04:07:30.245Z,7.90
2019-05-10T04:12:34.766Z,8.00
2019-05-10T04:17:39.788Z,8.00
2019-05-10T04:22:44.662Z,8.00
2019-05-10T04:27:49.224Z,8.00
2019-05-10T04:32:54.188Z,8.10
2019-05-10T04:37:59.242Z,8.10
2019-05-10T04:43:03.810Z,8.20
2019-05-10T04:48:08.236Z,8.30
2019-05-10T04:53:13.546Z,8.30
2019-05-10T04:58:17.901Z,8.40
2019-05-10T05:03:22.425Z,8.50
2019-05-10T05:08:26.851Z,8.60
2019-05-10T05:13:32.527Z,8.80
2019-05-10T05:18:37.241Z,8.90
2019-05-10T05:23:42.060Z,9.00
2019-05-10T05:28:46.936Z,9.20
2019-05-10T05:33:51.915Z,9.80
2019-05-10T05:38:56.755Z,10.00
2019-05-10T05:44:01.325Z,9.90
2019-05-10T05:49:06.728Z,10.20
2019-05-10T05:54:15.238Z,10.50
2019-05-10T05:59:23.735Z,10.50
2019-05-10T06:04:23.606Z,10.50
2019-05-10T06:09:32.076Z,10.40
2019-05-10T06:14:34.475Z,10.30
2019-05-10T06:19:39.143Z,10.30
2019-05-10T06:24:46.658Z,10.40
2019-05-10T06:29:49.923Z,10.60
2019-05-10T06:34:54.477Z,10.60
2019-05-10T06:39:59.533Z,10.80
2019-05-10T06:45:13.835Z,10.90
2019-05-10T06:50:11.445Z,11.10
2019-05-10T06:55:16.281Z,11.30
2019-05-10T07:00:21.321Z,11.20
2019-05-10T07:05:25.706Z,11.20
2019-05-10T07:10:33.716Z,11.20
2019-05-10T07:15:42.151Z,11.30
2019-05-10T07:20:43.443Z,11.70
2019-05-10T07:25:49.779Z,11.90
2019-05-10T07:30:54.663Z,12.60
2019-05-10T07:35:59.583Z,14.30
2019-05-10T07:41:04.107Z,17.50
2019-05-10T07:46:09.076Z,17.30
2019-05-10T07:51:13.754Z,15.60
2019-05-10T07:56:18.528Z,13.90
2019-05-10T08:01:32.121Z,13.70
2019-05-10T08:06:31.989Z,13.80
2019-05-10T08:11:35.495Z,14.40
2019-05-10T08:16:40.243Z,14.10
2019-05-10T08:21:48.707Z,14.60
2019-05-10T08:26:57.149Z,15.10
2019-05-10T08:31:57.849Z,15.40
2019-05-10T08:37:02.555Z,16.20
2019-05-10T08:42:27.649Z,19.60
2019-05-10T08:47:22.432Z,21.50
2019-05-10T08:52:23.898Z,21.40
2019-05-10T09:02:47.316Z,16.80
2019-05-10T09:07:52.218Z,17.00
2019-05-10T09:12:58.206Z,17.30
2019-05-10T09:18:07.373Z,17.30
2019-05-10T09:23:15.394Z,18.10
2019-05-10T09:28:17.110Z,17.30
2019-05-10T09:33:22.540Z,16.80
2019-05-10T09:38:28.549Z,17.30
2019-05-10T09:43:33.887Z,17.10
2019-05-10T09:48:38.737Z,16.50
2019-05-10T09:53:43.661Z,16.60
2019-05-10T09:58:48.650Z,19.00
2019-05-10T10:03:53.628Z,18.60
2019-05-10T10:09:00.892Z,17.30
2019-05-10T10:14:07.530Z,16.30
2019-05-10T10:19:11.667Z,16.30
2019-05-10T10:24:20.035Z,15.50
2019-05-10T10:29:22.530Z,15.60
2019-05-10T10:34:27.604Z,15.60
2019-05-10T10:39:32.063Z,15.30
2019-05-10T10:44:37.152Z,14.90
2019-05-10T10:49:41.750Z,14.80
2019-05-10T10:54:47.975Z,15.80
2019-05-10T10:59:52.987Z,17.60
2019-05-10T11:04:57.863Z,18.00
2019-05-10T11:10:14.762Z,18.00
2019-05-10T11:15:11.227Z,18.10
2019-05-10T11:20:15.218Z,18.10
2019-05-10T11:25:21.274Z,18.10
2019-05-10T11:30:25.673Z,17.60
2019-05-10T11:35:33.823Z,16.80
2019-05-10T11:40:37.314Z,16.20
2019-05-10T11:45:44.212Z,15.40
2019-05-10T11:50:51.387Z,15.20
2019-05-10T11:55:55.849Z,15.40
2019-05-10T12:01:12.927Z,15.30
2019-05-10T12:06:09.108Z,15.10
2019-05-10T12:11:27.583Z,15.50
2019-05-10T12:16:21.440Z,16.20
2019-05-10T12:21:25.551Z,16.30
2019-05-10T12:31:36.659Z,15.60
2019-05-10T12:36:41.212Z,15.30
2019-05-10T12:41:49.816Z,14.80
2019-05-10T12:46:54.301Z,14.80
2019-05-10T12:51:59.539Z,14.90
2019-05-10T12:57:04.771Z,14.40
2019-05-10T13:02:11.038Z,14.40
2019-05-10T13:07:15.398Z,14.10
2019-05-10T13:12:19.724Z,14.40
2019-05-10T13:17:24.078Z,15.10
2019-05-10T13:22:36.830Z,16.60
2019-05-10T13:27:34.812Z,17.00
2019-05-10T13:32:39.310Z,17.10
2019-05-10T13:37:44.676Z,17.40
2019-05-10T13:42:49.138Z,17.90
2019-05-10T13:47:53.984Z,17.40
2019-05-10T13:52:58.858Z,17.20
2019-05-10T13:58:03.357Z,17.30
2019-05-10T14:03:11.376Z,17.30
2019-05-10T14:08:14.427Z,18.00
2019-05-10T14:13:19.321Z,17.00
2019-05-10T14:18:24.086Z,17.20
2019-05-10T14:23:34.528Z,17.80
2019-05-10T14:28:34.884Z,18.20
2019-05-10T14:33:39.650Z,18.00
2019-05-10T14:38:47.242Z,16.90
2019-05-10T14:43:50.762Z,16.30
2019-05-10T14:49:08.877Z,16.50
2019-05-10T14:54:08.960Z,16.50
2019-05-10T14:59:14.408Z,16.80
2019-05-10T15:04:43.942Z,16.80
2019-05-10T15:09:27.345Z,17.20
2019-05-10T15:14:32.331Z,17.50
2019-05-10T15:19:38.123Z,17.70
2019-05-10T15:24:42.697Z,17.70
2019-05-10T15:29:47.270Z,17.30
2019-05-10T15:35:05.438Z,17.20
2019-05-10T15:40:00.616Z,17.00
2019-05-10T15:45:12.358Z,17.10
2019-05-10T15:50:12.493Z,17.20
2019-05-10T15:55:26.760Z,16.70
2019-05-10T16:00:37.735Z,16.40
2019-05-10T16:05:42.952Z,16.30
2019-05-10T16:10:40.992Z,16.30
2019-05-10T16:15:46.042Z,16.20
2019-05-10T16:20:50.929Z,16.10
2019-05-10T16:25:56.049Z,16.10
2019-05-10T16:31:01.608Z,16.20
2019-05-10T16:36:08.319Z,16.50
2019-05-10T16:41:12.921Z,16.70
2019-05-10T16:46:17.846Z,16.60
2019-05-10T16:51:22.420Z,16.30
2019-05-10T16:56:27.231Z,16.00
2019-05-10T17:01:33.784Z,15.70
2019-05-10T17:06:40.543Z,15.40
2019-05-10T17:11:46.795Z,15.30
2019-05-10T17:16:58.652Z,15.50
2019-05-10T17:21:57.668Z,15.70
2019-05-10T17:27:02.992Z,15.50
2019-05-10T17:32:07.845Z,15.40
2019-05-10T17:37:13.883Z,15.50
2019-05-10T17:42:18.595Z,15.60
2019-05-10T17:47:27.185Z,15.60
2019-05-10T17:52:30.368Z,15.50
2019-05-10T17:57:35.836Z,15.30
2019-05-10T18:02:40.266Z,15.00
2019-05-10T18:07:45.800Z,14.50
2019-05-10T18:12:50.552Z,14.20
2019-05-10T18:17:57.588Z,13.80
2019-05-10T18:23:01.665Z,13.40
2019-05-10T18:28:06.417Z,13.00
2019-05-10T18:33:14.032Z,12.60
2019-05-10T18:38:18.120Z,12.30
2019-05-10T18:43:22.933Z,12.00
2019-05-10T18:48:27.807Z,11.70
2019-05-10T18:53:32.692Z,11.40
2019-05-10T18:58:37.663Z,11.10
2019-05-10T19:03:42.605Z,10.90
2019-05-10T19:08:47.567Z,10.70
2019-05-10T19:13:54.131Z,10.50
2019-05-10T19:19:01.804Z,10.40
2019-05-10T19:24:05.325Z,10.30
2019-05-10T19:29:09.901Z,10.20
2019-05-10T19:34:15.826Z,10.00
2019-05-10T19:39:21.783Z,9.90
2019-05-10T19:44:26.435Z,9.90
2019-05-10T19:49:31.970Z,9.80
2019-05-10T19:54:36.866Z,9.70
2019-05-10T19:59:44.156Z,9.50
2019-05-10T20:04:48.231Z,9.50
2019-05-10T20:09:53.407Z,9.40
2019-05-10T20:14:58.712Z,9.40
2019-05-10T20:20:03.465Z,9.50
2019-05-10T20:25:08.805Z,9.50
2019-05-10T20:30:13.725Z,9.40
2019-05-10T20:35:18.641Z,9.40
2019-05-10T20:40:23.519Z,9.50
2019-05-10T20:45:28.011Z,9.60
2019-05-10T20:50:32.646Z,9.90
2019-05-10T20:55:38.310Z,10.00
2019-05-10T21:00:43.668Z,10.10
2019-05-10T21:05:48.189Z,10.10
2019-05-10T21:10:53.159Z,10.00
2019-05-10T21:15:58.224Z,10.10
2019-05-10T21:21:02.803Z,10.20
2019-05-10T21:26:07.377Z,10.20
2019-05-10T21:31:12.298Z,10.10
2019-05-10T21:36:17.124Z,10.10
2019-05-10T21:41:21.896Z,10.20
2019-05-10T21:46:26.700Z,10.30
2019-05-10T21:51:31.296Z,10.30
2019-05-10T21:56:37.051Z,10.30
2019-05-10T22:01:43.236Z,10.30
2019-05-10T22:06:47.699Z,10.30
2019-05-10T22:11:52.254Z,10.20
2019-05-10T22:16:56.760Z,10.20
2019-05-10T22:22:02.026Z,10.20
2019-05-10T22:27:06.998Z,10.30
2019-05-10T22:32:12.243Z,10.20
2019-05-10T22:37:17.089Z,10.20
2019-05-10T22:42:24.241Z,10.10
2019-05-10T22:47:28.331Z,10.10
2019-05-10T22:52:33.026Z,10.00
2019-05-10T22:57:37.525Z,10.10
2019-05-10T23:02:41.967Z,10.00
2019-05-10T23:07:46.963Z,10.00
2019-05-10T23:12:51.589Z,10.00
2019-05-10T23:17:56.391Z,10.10
2019-05-10T23:23:02.391Z,10.00
2019-05-10T23:28:07.146Z,10.10
2019-05-10T23:33:11.676Z,10.00
2019-05-10T23:38:16.921Z,9.90
2019-05-10T23:43:21.880Z,10.00
2019-05-10T23:48:27.027Z,10.00
2019-05-10T23:53:32.244Z,10.00
2019-05-10T23:58:36.973Z,10.10
